sensor_id;sensor_type;location;lat;lon;timestamp;pressure;altitude;pressure_sealevel;temperature;humidity
48352;BME280;34163;49.314;6.752;2022-11-11T00:00:24;101066.41;;;5.68;100.00
48352;BME280;34163;49.314;6.752;2022-11-11T00:02:49;101062.00;;;5.66;100.00
48352;BME280;34163;49.314;6.752;2022-11-11T00:05:15;101055.88;;;5.68;100.00
48352;BME280;34163;49.314;6.752;2022-11-11T00:07:43;101059.38;;;5.69;100.00
48352;BME280;34163;49.314;6.752;2022-11-11T00:10:08;101076.91;;;5.70;100.00
48352;BME280;34163;49.314;6.752;2022-11-11T00:12:34;101079.53;;;5.65;100.00
48352;BME280;34163;49.314;6.752;2022-11-11T00:14:59;101080.41;;;5.69;100.00
48352;BME280;34163;49.314;6.752;2022-11-11T00:17:25;101095.31;;;5.68;100.00
48352;BME280;34163;49.314;6.752;2022-11-11T00:20:09;101091.78;;;5.66;100.00
48352;BME280;34163;49.314;6.752;2022-11-11T03:22:34;101108.25;;;8.45;100.00
48352;BME280;34163;49.314;6.752;2022-11-11T03:24:59;101108.25;;;8.45;100.00
48352;BME280;34163;49.314;6.752;2022-11-11T03:27:43;101104.72;;;8.46;100.00
48352;BME280;34163;49.314;6.752;2022-11-11T03:30:09;101109.13;;;8.47;100.00
48352;BME280;34163;49.314;6.752;2022-11-11T03:32:35;101112.59;;;8.49;100.00
48352;BME280;34163;49.314;6.752;2022-11-11T03:35:00;101115.25;;;8.49;100.00
48352;BME280;34163;49.314;6.752;2022-11-11T03:37:25;101114.31;;;8.52;100.00
48352;BME280;34163;49.314;6.752;2022-11-11T03:40:09;101113.44;;;8.51;100.00
48352;BME280;34163;49.314;6.752;2022-11-11T03:42:35;101109.03;;;8.52;100.00
48352;BME280;34163;49.314;6.752;2022-11-11T03:45:01;101105.50;;;8.54;100.00
48352;BME280;34163;49.314;6.752;2022-11-11T03:47:26;101110.78;;;8.54;100.00
48352;BME280;34163;49.314;6.752;2022-11-11T03:49:54;101118.66;;;8.58;100.00
48352;BME280;34163;49.314;6.752;2022-11-11T03:52:20;101109.84;;;8.59;100.00
48352;BME280;34163;49.314;6.752;2022-11-11T03:54:45;101106.25;;;8.63;100.00
48352;BME280;34163;49.314;6.752;2022-11-11T03:57:10;101107.09;;;8.66;100.00
48352;BME280;34163;49.314;6.752;2022-11-11T03:59:54;101111.50;;;8.66;100.00
48352;BME280;34163;49.314;6.752;2022-11-11T04:02:19;101115.03;;;8.66;100.00
48352;BME280;34163;49.314;6.752;2022-11-11T04:05:03;101118.53;;;8.67;100.00
48352;BME280;34163;49.314;6.752;2022-11-11T04:07:49;101122.03;;;8.69;100.00
48352;BME280;34163;49.314;6.752;2022-11-11T04:10:33;101116.75;;;8.69;100.00
48352;BME280;34163;49.314;6.752;2022-11-11T04:12:58;101123.75;;;8.71;100.00
48352;BME280;34163;49.314;6.752;2022-11-11T04:15:42;101125.50;;;8.71;100.00
48352;BME280;34163;49.314;6.752;2022-11-11T04:18:26;101121.97;;;8.73;100.00
48352;BME280;34163;49.314;6.752;2022-11-11T04:21:10;101123.75;;;8.73;100.00
48352;BME280;34163;49.314;6.752;2022-11-11T04:23:54;101120.22;;;8.72;100.00
48352;BME280;34163;49.314;6.752;2022-11-11T04:26:19;101120.19;;;8.74;100.00
48352;BME280;34163;49.314;6.752;2022-11-11T04:28:45;101125.44;;;8.77;100.00
48352;BME280;34163;49.314;6.752;2022-11-11T04:31:28;101124.56;;;8.77;100.00
48352;BME280;34163;49.314;6.752;2022-11-11T04:33:54;101126.31;;;8.78;100.00
48352;BME280;34163;49.314;6.752;2022-11-11T04:36:19;101128.06;;;8.77;100.00
48352;BME280;34163;49.314;6.752;2022-11-11T04:38:44;101128.03;;;8.80;100.00
48352;BME280;34163;49.314;6.752;2022-11-11T04:41:28;101127.31;;;7.91;100.00
48352;BME280;34163;49.314;6.752;2022-11-11T04:43:54;101134.91;;;7.32;100.00
48352;BME280;34163;49.314;6.752;2022-11-11T04:46:38;101136.88;;;7.05;100.00
48352;BME280;34163;49.314;6.752;2022-11-11T04:49:03;101139.63;;;6.87;100.00
48352;BME280;34163;49.314;6.752;2022-11-11T04:51:28;101137.00;;;6.85;100.00
48352;BME280;34163;49.314;6.752;2022-11-11T04:54:13;101140.59;;;6.75;100.00
48352;BME280;34163;49.314;6.752;2022-11-11T08:46:28;101259.09;;;8.16;100.00
48352;BME280;34163;49.314;6.752;2022-11-11T08:48:53;101260.84;;;8.17;100.00
48352;BME280;34163;49.314;6.752;2022-11-11T08:51:18;101260.84;;;8.18;100.00
48352;BME280;34163;49.314;6.752;2022-11-11T08:53:46;101258.13;;;8.22;100.00
48352;BME280;34163;49.314;6.752;2022-11-11T08:56:11;101258.13;;;8.22;100.00
48352;BME280;34163;49.314;6.752;2022-11-11T08:58:58;101259.88;;;8.26;100.00
48352;BME280;34163;49.314;6.752;2022-11-11T09:01:23;101270.44;;;8.26;100.00
48352;BME280;34163;49.314;6.752;2022-11-11T09:03:48;101252.78;;;8.28;100.00
48352;BME280;34163;49.314;6.752;2022-11-11T09:06:13;101254.56;;;8.29;100.00
48352;BME280;34163;49.314;6.752;2022-11-11T09:08:55;101255.41;;;8.29;100.00
48352;BME280;34163;49.314;6.752;2022-11-11T09:11:21;101258.94;;;8.31;100.00
48352;BME280;34163;49.314;6.752;2022-11-11T09:13:46;101260.66;;;8.32;100.00
48352;BME280;34163;49.314;6.752;2022-11-11T09:16:12;101263.31;;;8.34;100.00
48352;BME280;34163;49.314;6.752;2022-11-11T09:18:38;101265.94;;;8.35;100.00
48352;BME280;34163;49.314;6.752;2022-11-11T09:21:03;101265.06;;;8.35;100.00
48352;BME280;34163;49.314;6.752;2022-11-11T09:23:28;101269.41;;;8.37;100.00
48352;BME280;34163;49.314;6.752;2022-11-11T09:25:54;101269.41;;;8.39;100.00
48352;BME280;34163;49.314;6.752;2022-11-11T09:28:19;101267.66;;;8.41;100.00
48352;BME280;34163;49.314;6.752;2022-11-11T09:30:44;101268.53;;;8.43;100.00
48352;BME280;34163;49.314;6.752;2022-11-11T09:33:10;101264.09;;;8.45;100.00
48352;BME280;34163;49.314;6.752;2022-11-11T09:35:36;101263.22;;;8.45;100.00
48352;BME280;34163;49.314;6.752;2022-11-11T09:38:02;101268.47;;;8.48;100.00
48352;BME280;34163;49.314;6.752;2022-11-11T09:43:22;101282.53;;;8.51;100.00
48352;BME280;34163;49.314;6.752;2022-11-11T09:45:57;101286.03;;;8.53;100.00
48352;BME280;34163;49.314;6.752;2022-11-11T09:48:31;101285.13;;;8.54;100.00
48352;BME280;34163;49.314;6.752;2022-11-11T09:50:59;101286.88;;;8.57;100.00
48352;BME280;34163;49.314;6.752;2022-11-11T09:53:37;101296.53;;;8.60;100.00
48352;BME280;34163;49.314;6.752;2022-11-11T09:56:27;101293.88;;;8.60;100.00
48352;BME280;34163;49.314;6.752;2022-11-11T10:01:39;101293.00;;;8.61;100.00
48352;BME280;34163;49.314;6.752;2022-11-11T10:06:41;101280.63;;;8.63;100.00
48352;BME280;34163;49.314;6.752;2022-11-11T10:09:28;101279.75;;;8.65;100.00
48352;BME280;34163;49.314;6.752;2022-11-11T10:12:14;101281.47;;;8.68;100.00
48352;BME280;34163;49.314;6.752;2022-11-11T10:14:43;101277.06;;;8.70;100.00
48352;BME280;34163;49.314;6.752;2022-11-11T10:22:21;101278.75;;;8.74;100.00
48352;BME280;34163;49.314;6.752;2022-11-11T10:25:05;101276.09;;;8.74;100.00
48352;BME280;34163;49.314;6.752;2022-11-11T10:27:34;101274.34;;;8.75;100.00
48352;BME280;34163;49.314;6.752;2022-11-11T10:30:00;101277.84;;;8.77;100.00
48352;BME280;34163;49.314;6.752;2022-11-11T10:32:32;101281.00;;;8.26;100.00
48352;BME280;34163;49.314;6.752;2022-11-11T10:34:59;101268.44;;;7.44;100.00
48352;BME280;34163;49.314;6.752;2022-11-11T10:37:35;101264.25;;;7.09;100.00
48352;BME280;34163;49.314;6.752;2022-11-11T10:42:58;101266.13;;;6.79;100.00
48352;BME280;34163;49.314;6.752;2022-11-11T10:45:28;101260.88;;;6.68;100.00
48352;BME280;34163;49.314;6.752;2022-11-11T10:48:00;101260.94;;;6.62;100.00
48352;BME280;34163;49.314;6.752;2022-11-11T10:53:01;101258.31;;;6.50;100.00
48352;BME280;34163;49.314;6.752;2022-11-11T10:55:35;101253.06;;;6.44;100.00
48352;BME280;34163;49.314;6.752;2022-11-11T11:00:47;101247.81;;;6.34;100.00
48352;BME280;34163;49.314;6.752;2022-11-11T11:03:15;101240.81;;;6.27;100.00
48352;BME280;34163;49.314;6.752;2022-11-11T11:08:14;101239.06;;;6.20;100.00
48352;BME280;34163;49.314;6.752;2022-11-11T11:10:50;101247.88;;;6.16;100.00
48352;BME280;34163;49.314;6.752;2022-11-11T11:13:30;101239.97;;;6.13;100.00
48352;BME280;34163;49.314;6.752;2022-11-11T11:16:05;101243.47;;;6.27;100.00
48352;BME280;34163;49.314;6.752;2022-11-11T11:18:32;101237.34;;;6.16;100.00
48352;BME280;34163;49.314;6.752;2022-11-11T11:21:04;101236.44;;;6.05;100.00
48352;BME280;34163;49.314;6.752;2022-11-11T11:23:38;101238.22;;;6.01;100.00
48352;BME280;34163;49.314;6.752;2022-11-11T11:26:25;101233.84;;;5.98;100.00
48352;BME280;34163;49.314;6.752;2022-11-11T11:32:10;101233.81;;;5.91;100.00
48352;BME280;34163;49.314;6.752;2022-11-11T11:37:24;101230.31;;;5.87;100.00
48352;BME280;34163;49.314;6.752;2022-11-11T11:40:00;101240.84;;;5.82;100.00
48352;BME280;34163;49.314;6.752;2022-11-11T11:45:20;101236.44;;;5.86;100.00
48352;BME280;34163;49.314;6.752;2022-11-11T11:48:04;101231.19;;;5.91;100.00
48352;BME280;34163;49.314;6.752;2022-11-11T12:07:21;101225.91;;;5.68;100.00
48352;BME280;34163;49.314;6.752;2022-11-11T12:12:31;101227.66;;;5.56;100.00
48352;BME280;34163;49.314;6.752;2022-11-11T12:17:43;101232.94;;;5.75;100.00
48352;BME280;34163;49.314;6.752;2022-11-11T12:22:51;101241.72;;;5.57;100.00
48352;BME280;34163;49.314;6.752;2022-11-11T12:30:52;101223.31;;;5.55;100.00
48352;BME280;34163;49.314;6.752;2022-11-11T12:33:56;101226.81;;;5.56;100.00
48352;BME280;34163;49.314;6.752;2022-11-11T12:38:49;101228.56;;;5.51;100.00
48352;BME280;34163;49.314;6.752;2022-11-11T12:44:08;101226.78;;;5.46;100.00
48352;BME280;34163;49.314;6.752;2022-11-11T12:46:57;101232.03;;;5.42;100.00
48352;BME280;34163;49.314;6.752;2022-11-11T12:54:41;101218.88;;;5.42;100.00
48352;BME280;34163;49.314;6.752;2022-11-11T13:05:10;101219.78;;;5.55;100.00
48352;BME280;34163;49.314;6.752;2022-11-11T13:07:41;101233.81;;;5.46;100.00
48352;BME280;34163;49.314;6.752;2022-11-11T13:10:16;101225.03;;;5.38;100.00
48352;BME280;34163;49.314;6.752;2022-11-11T13:13:05;101211.88;;;5.44;100.00
48352;BME280;34163;49.314;6.752;2022-11-11T13:15:40;101225.03;;;5.38;100.00
48352;BME280;34163;49.314;6.752;2022-11-11T13:18:13;101230.28;;;5.36;100.00
48352;BME280;34163;49.314;6.752;2022-11-11T13:23:14;101225.03;;;5.41;100.00
48352;BME280;34163;49.314;6.752;2022-11-11T13:25:44;101231.16;;;5.41;100.00
48352;BME280;34163;49.314;6.752;2022-11-11T13:28:18;101225.91;;;5.34;100.00
48352;BME280;34163;49.314;6.752;2022-11-11T13:33:25;101226.75;;;5.37;100.00
48352;BME280;34163;49.314;6.752;2022-11-11T13:36:00;101231.16;;;5.37;100.00
48352;BME280;34163;49.314;6.752;2022-11-11T13:38:31;101226.75;;;5.34;100.00
48352;BME280;34163;49.314;6.752;2022-11-11T13:41:00;101230.28;;;5.33;100.00
48352;BME280;34163;49.314;6.752;2022-11-11T13:45:56;101229.41;;;5.40;100.00
48352;BME280;34163;49.314;6.752;2022-11-11T13:48:26;101226.75;;;5.37;100.00
48352;BME280;34163;49.314;6.752;2022-11-11T13:50:52;101241.66;;;5.34;100.00
48352;BME280;34163;49.314;6.752;2022-11-11T13:53:25;101239.03;;;5.38;100.00
48352;BME280;34163;49.314;6.752;2022-11-11T13:55:52;101245.16;;;5.37;100.00
48352;BME280;34163;49.314;6.752;2022-11-11T13:58:35;101237.31;;;5.88;100.00
48352;BME280;34163;49.314;6.752;2022-11-11T14:01:03;101232.00;;;6.45;100.00
48352;BME280;34163;49.314;6.752;2022-11-11T14:09:00;101234.38;;;7.12;100.00
48352;BME280;34163;49.314;6.752;2022-11-11T14:11:30;101229.03;;;7.21;100.00
48352;BME280;34163;49.314;6.752;2022-11-11T14:21:48;101221.78;;;7.54;100.00
48352;BME280;34163;49.314;6.752;2022-11-11T14:27:19;101227.84;;;7.65;100.00
48352;BME280;34163;49.314;6.752;2022-11-11T14:29:55;101227.81;;;7.71;100.00
48352;BME280;34163;49.314;6.752;2022-11-11T14:35:11;101225.09;;;7.80;100.00
48352;BME280;34163;49.314;6.752;2022-11-11T14:40:28;101221.47;;;7.91;100.00
48352;BME280;34163;49.314;6.752;2022-11-11T14:42:56;101212.69;;;7.92;100.00
48352;BME280;34163;49.314;6.752;2022-11-11T14:47:48;101209.06;;;7.99;100.00
48352;BME280;34163;49.314;6.752;2022-11-11T14:52:48;101210.81;;;8.03;100.00
48352;BME280;34163;49.314;6.752;2022-11-11T14:55:25;101207.28;;;8.04;100.00
48352;BME280;34163;49.314;6.752;2022-11-11T14:58:04;101202.84;;;8.09;100.00
48352;BME280;34163;49.314;6.752;2022-11-11T15:00:42;101209.81;;;8.13;100.00
48352;BME280;34163;49.314;6.752;2022-11-11T15:03:11;101203.66;;;8.14;100.00
48352;BME280;34163;49.314;6.752;2022-11-11T15:08:14;101193.94;;;8.16;100.00
48352;BME280;34163;49.314;6.752;2022-11-11T15:23:43;101190.28;;;8.31;100.00
48352;BME280;34163;49.314;6.752;2022-11-11T15:26:18;101188.50;;;8.33;100.00
48352;BME280;34163;49.314;6.752;2022-11-11T15:39:13;101187.50;;;8.42;100.00
48352;BME280;34163;49.314;6.752;2022-11-11T15:41:42;101189.28;;;8.43;100.00
48352;BME280;34163;49.314;6.752;2022-11-11T15:44:21;101187.50;;;8.42;100.00
48352;BME280;34163;49.314;6.752;2022-11-11T15:46:51;101191.91;;;8.45;100.00
48352;BME280;34163;49.314;6.752;2022-11-11T15:52:05;101192.75;;;8.48;100.00
48352;BME280;34163;49.314;6.752;2022-11-11T15:54:36;101192.69;;;8.51;100.00
48352;BME280;34163;49.314;6.752;2022-11-11T15:59:58;101185.63;;;8.53;100.00
48352;BME280;34163;49.314;6.752;2022-11-11T16:02:30;101191.78;;;8.56;100.00
48352;BME280;34163;49.314;6.752;2022-11-11T16:05:20;101192.66;;;8.54;100.00
48352;BME280;34163;49.314;6.752;2022-11-11T16:07:57;101191.75;;;8.59;100.00
48352;BME280;34163;49.314;6.752;2022-11-11T16:10:35;101194.38;;;8.60;100.00
48352;BME280;34163;49.314;6.752;2022-11-11T16:18:33;101181.13;;;8.65;100.00
48352;BME280;34163;49.314;6.752;2022-11-11T16:23:52;101175.75;;;8.68;100.00
48352;BME280;34163;49.314;6.752;2022-11-11T16:26:18;101185.44;;;8.69;100.00
48352;BME280;34163;49.314;6.752;2022-11-11T16:31:50;101183.66;;;8.69;100.00
48352;BME280;34163;49.314;6.752;2022-11-11T16:37:00;101191.53;;;8.74;100.00
48352;BME280;34163;49.314;6.752;2022-11-11T16:39:26;101189.78;;;8.76;100.00
48352;BME280;34163;49.314;6.752;2022-11-11T16:41:55;101199.44;;;8.77;100.00
48352;BME280;34163;49.314;6.752;2022-11-11T16:44:38;101197.91;;;7.71;100.00
48352;BME280;34163;49.314;6.752;2022-11-11T16:52:26;101201.94;;;6.96;100.00
48352;BME280;34163;49.314;6.752;2022-11-11T16:54:53;101201.09;;;6.87;100.00
48352;BME280;34163;49.314;6.752;2022-11-11T16:57:22;101205.50;;;6.82;100.00
48352;BME280;34163;49.314;6.752;2022-11-11T16:59:51;101203.84;;;6.69;100.00
48352;BME280;34163;49.314;6.752;2022-11-11T17:05:13;101204.72;;;6.63;100.00
48352;BME280;34163;49.314;6.752;2022-11-11T17:07:46;101214.41;;;6.60;100.00
48352;BME280;34163;49.314;6.752;2022-11-11T17:12:55;101208.28;;;6.53;100.00
48352;BME280;34163;49.314;6.752;2022-11-11T17:15:28;101206.53;;;6.46;100.00
48352;BME280;34163;49.314;6.752;2022-11-11T17:18:04;101207.44;;;6.39;100.00
48352;BME280;34163;49.314;6.752;2022-11-11T17:23:09;101214.50;;;6.30;100.00
48352;BME280;34163;49.314;6.752;2022-11-11T17:25:34;101209.25;;;6.24;100.00
48352;BME280;34163;49.314;6.752;2022-11-11T17:27:59;101204.84;;;6.25;100.00
48352;BME280;34163;49.314;6.752;2022-11-11T17:30:35;101209.22;;;6.30;100.00
48352;BME280;34163;49.314;6.752;2022-11-11T17:33:01;101211.88;;;6.18;100.00
48352;BME280;34163;49.314;6.752;2022-11-11T17:35:35;101219.78;;;6.09;100.00
48352;BME280;34163;49.314;6.752;2022-11-11T17:38:08;101218.94;;;6.10;100.00
48352;BME280;34163;49.314;6.752;2022-11-11T17:40:35;101214.53;;;5.96;100.00
48352;BME280;34163;49.314;6.752;2022-11-11T17:43:10;101224.16;;;5.94;100.00
48352;BME280;34163;49.314;6.752;2022-11-11T17:45:45;101231.22;;;5.97;100.00
48352;BME280;34163;49.314;6.752;2022-11-11T17:48:18;101223.28;;;5.91;100.00
48352;BME280;34163;49.314;6.752;2022-11-11T17:50:43;101223.28;;;5.91;100.00
48352;BME280;34163;49.314;6.752;2022-11-11T17:53:08;101229.47;;;5.99;100.00
48352;BME280;34163;49.314;6.752;2022-11-11T17:55:36;101232.06;;;5.91;100.00
48352;BME280;34163;49.314;6.752;2022-11-11T17:58:01;101236.44;;;5.86;100.00
48352;BME280;34163;49.314;6.752;2022-11-11T18:00:30;101239.06;;;5.85;100.00
48352;BME280;34163;49.314;6.752;2022-11-11T18:02:56;101232.97;;;5.87;100.00
48352;BME280;34163;49.314;6.752;2022-11-11T18:05:22;101229.41;;;5.85;100.00
48352;BME280;34163;49.314;6.752;2022-11-11T18:08:00;101238.22;;;5.81;100.00
48352;BME280;34163;49.314;6.752;2022-11-11T18:13:09;101243.47;;;5.84;100.00
48352;BME280;34163;49.314;6.752;2022-11-11T18:15:55;101238.22;;;5.81;100.00
48352;BME280;34163;49.314;6.752;2022-11-11T18:21:05;101240.84;;;5.84;100.00
48352;BME280;34163;49.314;6.752;2022-11-11T18:23:38;101234.69;;;5.77;100.00
48352;BME280;34163;49.314;6.752;2022-11-11T18:26:09;101232.06;;;5.85;100.00
48352;BME280;34163;49.314;6.752;2022-11-11T18:28:37;101225.06;;;5.87;100.00
48352;BME280;34163;49.314;6.752;2022-11-11T18:31:09;101222.44;;;5.87;100.00
48352;BME280;34163;49.314;6.752;2022-11-11T18:36:12;101210.13;;;5.80;100.00
48352;BME280;34163;49.314;6.752;2022-11-11T18:38:38;101204.00;;;5.72;100.00
48352;BME280;34163;49.314;6.752;2022-11-11T18:43:52;101203.16;;;5.70;100.00
48352;BME280;34163;49.314;6.752;2022-11-11T18:46:38;101203.16;;;5.73;100.00
48352;BME280;34163;49.314;6.752;2022-11-11T18:49:06;101207.50;;;5.78;100.00
48352;BME280;34163;49.314;6.752;2022-11-11T18:51:39;101211.03;;;5.65;100.00
48352;BME280;34163;49.314;6.752;2022-11-11T18:54:15;101205.78;;;5.68;100.00
48352;BME280;34163;49.314;6.752;2022-11-11T18:56:40;101204.00;;;5.58;100.00
48352;BME280;34163;49.314;6.752;2022-11-11T18:59:08;101207.50;;;5.64;100.00
48352;BME280;34163;49.314;6.752;2022-11-11T19:01:37;101211.03;;;5.71;100.00
48352;BME280;34163;49.314;6.752;2022-11-11T19:07:06;101200.50;;;5.60;100.00
48352;BME280;34163;49.314;6.752;2022-11-11T19:13:10;101203.13;;;5.59;100.00
48352;BME280;34163;49.314;6.752;2022-11-11T19:18:49;101210.13;;;5.64;100.00
48352;BME280;34163;49.314;6.752;2022-11-11T19:21:15;101219.78;;;5.58;100.00
48352;BME280;34163;49.314;6.752;2022-11-11T19:40:17;101225.94;;;5.55;100.00
48352;BME280;34163;49.314;6.752;2022-11-11T19:54:40;101236.44;;;5.58;100.00
48352;BME280;34163;49.314;6.752;2022-11-11T20:00:22;101232.91;;;5.52;100.00
48352;BME280;34163;49.314;6.752;2022-11-11T20:03:11;101233.81;;;5.54;100.00
48352;BME280;34163;49.314;6.752;2022-11-11T20:08:37;101244.31;;;5.37;100.00
48352;BME280;34163;49.314;6.752;2022-11-11T20:11:23;101236.34;;;6.57;100.00
48352;BME280;34163;49.314;6.752;2022-11-11T20:13:57;101239.94;;;5.76;100.00
48352;BME280;34163;49.314;6.752;2022-11-11T20:16:25;101240.81;;;5.50;100.00
48352;BME280;34163;49.314;6.752;2022-11-11T20:18:57;101241.69;;;5.38;100.00
48352;BME280;34163;49.314;6.752;2022-11-11T20:21:23;101249.56;;;5.37;100.00
48352;BME280;34163;49.314;6.752;2022-11-11T20:23:48;101257.50;;;5.95;100.00
48352;BME280;34163;49.314;6.752;2022-11-11T20:26:14;101251.34;;;6.33;100.00
48352;BME280;34163;49.314;6.752;2022-11-11T20:28:43;101238.97;;;6.59;100.00
48352;BME280;34163;49.314;6.752;2022-11-11T20:31:17;101256.50;;;6.75;100.00
48352;BME280;34163;49.314;6.752;2022-11-11T20:33:43;101259.06;;;6.87;100.00
48352;BME280;34163;49.314;6.752;2022-11-11T20:36:12;101254.66;;;6.96;100.00
48352;BME280;34163;49.314;6.752;2022-11-11T20:38:37;101243.19;;;7.06;100.00
48352;BME280;34163;49.314;6.752;2022-11-11T20:41:09;101251.06;;;7.12;100.00
48352;BME280;34163;49.314;6.752;2022-11-11T20:43:35;101251.03;;;7.18;100.00
48352;BME280;34163;49.314;6.752;2022-11-11T20:46:01;101247.47;;;7.24;100.00
48352;BME280;34163;49.314;6.752;2022-11-11T20:48:26;101243.06;;;7.27;100.00
48352;BME280;34163;49.314;6.752;2022-11-11T20:53:17;101249.16;;;7.36;100.00
48352;BME280;34163;49.314;6.752;2022-11-11T20:55:43;101245.63;;;7.38;100.00
48352;BME280;34163;49.314;6.752;2022-11-11T21:00:59;101229.72;;;7.51;100.00
48352;BME280;34163;49.314;6.752;2022-11-11T21:03:24;101233.19;;;7.54;100.00
48352;BME280;34163;49.314;6.752;2022-11-11T21:05:50;101235.81;;;7.56;100.00
48352;BME280;34163;49.314;6.752;2022-11-11T21:08:15;101235.81;;;7.59;100.00
48352;BME280;34163;49.314;6.752;2022-11-11T21:10:40;101239.28;;;7.61;100.00
48352;BME280;34163;49.314;6.752;2022-11-11T21:13:06;101237.53;;;7.66;100.00
48352;BME280;34163;49.314;6.752;2022-11-11T21:15:31;101232.22;;;7.69;100.00
48352;BME280;34163;49.314;6.752;2022-11-11T21:17:56;101227.81;;;7.70;100.00
48352;BME280;34163;49.314;6.752;2022-11-11T21:23:22;101229.50;;;7.75;100.00
48352;BME280;34163;49.314;6.752;2022-11-11T21:25:47;101230.38;;;7.79;100.00
48352;BME280;34163;49.314;6.752;2022-11-11T21:28:13;101225.97;;;7.78;100.00
48352;BME280;34163;49.314;6.752;2022-11-11T21:30:38;101226.81;;;7.81;100.00
48352;BME280;34163;49.314;6.752;2022-11-11T21:33:03;101230.34;;;7.82;100.00
48352;BME280;34163;49.314;6.752;2022-11-11T21:35:32;101230.34;;;7.84;100.00
48352;BME280;34163;49.314;6.752;2022-11-11T21:38:02;101232.06;;;7.88;100.00
48352;BME280;34163;49.314;6.752;2022-11-11T21:40:30;101223.25;;;7.89;100.00
48352;BME280;34163;49.314;6.752;2022-11-11T21:42:55;101227.63;;;7.91;100.00
48352;BME280;34163;49.314;6.752;2022-11-11T21:45:21;101217.94;;;7.93;100.00
48352;BME280;34163;49.314;6.752;2022-11-11T21:47:46;101223.22;;;7.93;100.00
48352;BME280;34163;49.314;6.752;2022-11-11T21:50:11;101217.94;;;7.95;100.00
48352;BME280;34163;49.314;6.752;2022-11-11T21:52:36;101226.69;;;7.97;100.00
48352;BME280;34163;49.314;6.752;2022-11-11T21:55:02;101224.06;;;7.97;100.00
48352;BME280;34163;49.314;6.752;2022-11-11T21:57:27;101227.56;;;7.99;100.00
48352;BME280;34163;49.314;6.752;2022-11-11T21:59:52;101225.78;;;8.03;100.00
48352;BME280;34163;49.314;6.752;2022-11-11T22:02:21;101224.00;;;8.03;100.00
48352;BME280;34163;49.314;6.752;2022-11-11T22:04:46;101220.50;;;8.04;100.00
48352;BME280;34163;49.314;6.752;2022-11-11T22:07:11;101219.59;;;8.04;100.00
48352;BME280;34163;49.314;6.752;2022-11-11T22:09:44;101226.63;;;8.05;100.00
48352;BME280;34163;49.314;6.752;2022-11-11T22:12:09;101226.59;;;8.08;100.00
48352;BME280;34163;49.314;6.752;2022-11-11T22:14:35;101232.75;;;8.08;100.00
48352;BME280;34163;49.314;6.752;2022-11-11T22:17:29;101236.22;;;8.13;100.00
48352;BME280;34163;49.314;6.752;2022-11-11T22:20:02;101237.09;;;8.15;100.00
48352;BME280;34163;49.314;6.752;2022-11-11T22:22:27;101227.44;;;8.11;100.00
48352;BME280;34163;49.314;6.752;2022-11-11T22:24:56;101234.44;;;8.17;100.00
48352;BME280;34163;49.314;6.752;2022-11-11T22:27:48;101228.25;;;8.16;100.00
48352;BME280;34163;49.314;6.752;2022-11-11T22:30:16;101225.59;;;8.18;100.00
48352;BME280;34163;49.314;6.752;2022-11-11T22:32:42;101233.50;;;8.19;100.00
48352;BME280;34163;49.314;6.752;2022-11-11T22:35:08;101228.25;;;8.18;100.00
48352;BME280;34163;49.314;6.752;2022-11-11T22:37:33;101229.09;;;8.22;100.00
48352;BME280;34163;49.314;6.752;2022-11-11T22:39:59;101221.16;;;8.22;100.00
48352;BME280;34163;49.314;6.752;2022-11-11T22:42:24;101234.34;;;8.25;100.00
48352;BME280;34163;49.314;6.752;2022-11-11T22:44:52;101236.13;;;8.24;100.00
48352;BME280;34163;49.314;6.752;2022-11-11T22:47:17;101223.78;;;8.25;100.00
48352;BME280;34163;49.314;6.752;2022-11-11T22:49:42;101216.75;;;8.27;100.00
48352;BME280;34163;49.314;6.752;2022-11-11T22:52:08;101218.47;;;8.28;100.00
48352;BME280;34163;49.314;6.752;2022-11-11T22:54:33;101231.66;;;8.29;100.00
48352;BME280;34163;49.314;6.752;2022-11-11T22:56:58;101240.47;;;8.31;100.00
48352;BME280;34163;49.314;6.752;2022-11-11T22:59:23;101231.63;;;8.31;100.00
48352;BME280;34163;49.314;6.752;2022-11-11T23:01:49;101236.91;;;8.32;100.00
48352;BME280;34163;49.314;6.752;2022-11-11T23:04:14;101233.41;;;8.32;100.00
48352;BME280;34163;49.314;6.752;2022-11-11T23:06:39;101225.44;;;8.35;100.00
48352;BME280;34163;49.314;6.752;2022-11-11T23:09:06;101221.03;;;8.35;100.00
48352;BME280;34163;49.314;6.752;2022-11-11T23:11:32;101219.28;;;8.36;100.00
48352;BME280;34163;49.314;6.752;2022-11-11T23:14:04;101218.38;;;8.37;100.00
48352;BME280;34163;49.314;6.752;2022-11-11T23:16:30;101213.09;;;8.37;100.00
48352;BME280;34163;49.314;6.752;2022-11-11T23:18:56;101213.94;;;8.37;100.00
48352;BME280;34163;49.314;6.752;2022-11-11T23:21:22;101205.16;;;8.39;100.00
48352;BME280;34163;49.314;6.752;2022-11-11T23:23:48;101211.28;;;8.41;100.00
48352;BME280;34163;49.314;6.752;2022-11-11T23:26:17;101211.28;;;8.41;100.00
48352;BME280;34163;49.314;6.752;2022-11-11T23:28:42;101211.25;;;8.42;100.00
48352;BME280;34163;49.314;6.752;2022-11-11T23:31:11;101205.13;;;8.43;100.00
48352;BME280;34163;49.314;6.752;2022-11-11T23:33:40;101205.13;;;8.43;100.00
48352;BME280;34163;49.314;6.752;2022-11-11T23:36:07;101198.06;;;8.44;100.00
48352;BME280;34163;49.314;6.752;2022-11-11T23:38:35;101200.69;;;8.47;100.00
48352;BME280;34163;49.314;6.752;2022-11-11T23:41:01;101194.53;;;8.46;100.00
48352;BME280;34163;49.314;6.752;2022-11-11T23:43:27;101205.09;;;8.48;100.00
48352;BME280;34163;49.314;6.752;2022-11-11T23:45:52;101208.59;;;8.48;100.00
48352;BME280;34163;49.314;6.752;2022-11-11T23:48:19;101214.69;;;8.52;100.00
48352;BME280;34163;49.314;6.752;2022-11-11T23:50:44;101208.56;;;8.51;100.00
48352;BME280;34163;49.314;6.752;2022-11-11T23:53:09;101202.38;;;8.52;100.00